createdAt,value
2019-05-10T00:02:15.491Z,20.20
2019-05-10T00:05:08.190Z,22.90
2019-05-10T00:08:00.832Z,24.25
2019-05-10T00:10:34.901Z,28.73
2019-05-10T00:13:23.302Z,25.40
2019-05-10T00:15:59.662Z,25.77
2019-05-10T00:18:34.461Z,24.40
2019-05-10T00:21:09.151Z,23.50
2019-05-10T00:23:43.935Z,23.55
2019-05-10T00:26:37.932Z,22.15
2019-05-10T00:29:12.685Z,21.82
2019-05-10T00:31:47.404Z,22.62
2019-05-10T00:34:22.092Z,21.82
2019-05-10T00:36:56.750Z,20.88
2019-05-10T00:39:31.355Z,20.77
2019-05-10T00:42:06.117Z,21.82
2019-05-10T00:44:59.354Z,19.62
2019-05-10T00:47:34.146Z,22.35
2019-05-10T00:50:09.014Z,23.38
2019-05-10T00:52:43.730Z,18.20
2019-05-10T00:55:19.542Z,22.70
2019-05-10T00:57:54.313Z,22.70
2019-05-10T01:00:29.028Z,19.95
2019-05-10T01:03:03.892Z,25.43
2019-05-10T01:05:38.497Z,23.98
2019-05-10T01:08:13.147Z,22.48
2019-05-10T01:10:47.919Z,23.22
2019-05-10T01:13:22.876Z,23.92
2019-05-10T01:15:57.688Z,22.90
2019-05-10T01:18:32.353Z,24.95
2019-05-10T01:21:07.099Z,29.50
2019-05-10T01:23:41.816Z,20.52
2019-05-10T01:26:16.430Z,22.02
2019-05-10T01:28:51.227Z,18.45
2019-05-10T01:31:25.993Z,19.37
2019-05-10T01:34:00.713Z,21.00
2019-05-10T01:36:35.325Z,19.98
2019-05-10T01:39:09.986Z,26.23
2019-05-10T01:41:44.752Z,25.60
2019-05-10T01:44:19.477Z,23.83
2019-05-10T01:46:54.218Z,26.90
2019-05-10T01:49:28.945Z,21.75
2019-05-10T01:52:03.698Z,20.20
2019-05-10T01:54:38.489Z,21.07
2019-05-10T01:57:13.144Z,18.30
2019-05-10T01:59:47.895Z,15.43
2019-05-10T02:02:22.822Z,16.65
2019-05-10T02:04:57.622Z,17.05
2019-05-10T02:07:32.381Z,18.73
2019-05-10T02:10:07.983Z,16.32
2019-05-10T02:12:42.757Z,14.33
2019-05-10T02:15:17.562Z,14.30
2019-05-10T02:17:52.230Z,13.68
2019-05-10T02:20:26.885Z,13.75
2019-05-10T02:23:01.578Z,14.58
2019-05-10T02:25:36.302Z,12.73
2019-05-10T02:28:10.988Z,13.55
2019-05-10T02:30:45.782Z,13.85
2019-05-10T02:33:20.479Z,13.10
2019-05-10T02:35:55.957Z,13.08
2019-05-10T02:38:30.647Z,13.65
2019-05-10T02:41:05.458Z,14.43
2019-05-10T02:43:40.158Z,15.08
2019-05-10T02:46:14.922Z,14.35
2019-05-10T02:48:49.609Z,13.48
2019-05-10T02:51:24.344Z,14.20
2019-05-10T02:54:00.290Z,14.13
2019-05-10T02:56:36.470Z,12.93
2019-05-10T02:59:12.382Z,14.40
2019-05-10T03:01:47.144Z,12.18
2019-05-10T03:04:23.764Z,13.05
2019-05-10T03:07:06.664Z,13.90
2019-05-10T03:09:42.752Z,14.15
2019-05-10T03:12:25.682Z,11.63
2019-05-10T03:15:00.461Z,12.20
2019-05-10T03:17:38.063Z,12.68
2019-05-10T03:20:13.182Z,11.90
2019-05-10T03:22:48.541Z,13.32
2019-05-10T03:25:23.221Z,16.27
2019-05-10T03:27:58.027Z,12.68
2019-05-10T03:30:32.872Z,14.98
2019-05-10T03:33:07.685Z,12.98
2019-05-10T03:35:42.417Z,23.50
2019-05-10T03:38:17.118Z,10.03
2019-05-10T03:40:51.872Z,11.65
2019-05-10T03:43:26.594Z,11.30
2019-05-10T03:46:01.343Z,12.80
2019-05-10T03:48:36.066Z,12.85
2019-05-10T03:51:10.831Z,17.02
2019-05-10T03:53:45.556Z,10.28
2019-05-10T03:56:20.194Z,13.62
2019-05-10T03:58:54.949Z,9.78
2019-05-10T04:01:29.643Z,14.50
2019-05-10T04:04:04.438Z,15.00
2019-05-10T04:06:39.209Z,19.20
2019-05-10T04:09:14.861Z,23.35
2019-05-10T04:11:49.621Z,25.85
2019-05-10T04:14:24.418Z,18.50
2019-05-10T04:16:59.109Z,18.12
2019-05-10T04:19:33.836Z,20.37
2019-05-10T04:22:08.605Z,18.02
2019-05-10T04:24:43.398Z,13.93
2019-05-10T04:27:31.786Z,16.10
2019-05-10T04:29:54.648Z,15.10
2019-05-10T04:32:29.334Z,10.35
2019-05-10T04:35:08.063Z,14.15
2019-05-10T04:37:42.738Z,10.00
2019-05-10T04:40:17.565Z,23.38
2019-05-10T04:42:52.180Z,13.70
2019-05-10T04:45:26.971Z,17.62
2019-05-10T04:48:01.656Z,10.90
2019-05-10T04:50:36.313Z,21.17
2019-05-10T04:53:11.077Z,14.40
2019-05-10T04:55:45.813Z,22.48
2019-05-10T04:58:20.504Z,10.82
2019-05-10T05:00:55.185Z,16.15
2019-05-10T05:03:29.842Z,12.30
2019-05-10T05:06:05.071Z,12.43
2019-05-10T05:08:39.740Z,14.45
2019-05-10T05:11:14.472Z,12.70
2019-05-10T05:13:49.234Z,18.77
2019-05-10T05:16:23.962Z,20.88
2019-05-10T05:18:58.659Z,13.95
2019-05-10T05:21:33.460Z,20.12
2019-05-10T05:24:08.158Z,22.02
2019-05-10T05:26:42.808Z,14.45
2019-05-10T05:29:17.566Z,16.48
2019-05-10T05:31:54.174Z,11.70
2019-05-10T05:34:28.685Z,12.30
2019-05-10T05:37:03.418Z,16.10
2019-05-10T05:39:38.157Z,11.93
2019-05-10T05:42:12.957Z,11.57
2019-05-10T05:44:47.602Z,12.03
2019-05-10T05:47:22.486Z,11.85
2019-05-10T05:49:57.118Z,11.80
2019-05-10T05:52:31.785Z,11.50
2019-05-10T05:55:07.762Z,11.88
2019-05-10T05:57:42.411Z,11.73
2019-05-10T06:00:17.202Z,13.32
2019-05-10T06:02:51.959Z,11.22
2019-05-10T06:05:34.279Z,13.62
2019-05-10T06:08:03.178Z,11.38
2019-05-10T06:10:37.937Z,10.98
2019-05-10T06:13:12.659Z,11.05
2019-05-10T06:15:47.419Z,9.85
2019-05-10T06:18:22.203Z,10.30
2019-05-10T06:20:56.968Z,10.93
2019-05-10T06:23:35.343Z,9.90
2019-05-10T06:26:21.042Z,13.58
2019-05-10T06:28:58.321Z,10.45
2019-05-10T06:31:20.882Z,10.25
2019-05-10T06:33:55.508Z,10.48
2019-05-10T06:36:30.256Z,9.35
2019-05-10T06:39:07.156Z,9.15
2019-05-10T06:41:41.758Z,8.53
2019-05-10T06:44:16.550Z,9.08
2019-05-10T06:46:51.233Z,8.80
2019-05-10T06:49:25.946Z,8.28
2019-05-10T06:52:00.559Z,8.53
2019-05-10T06:54:35.232Z,8.25
2019-05-10T06:57:11.097Z,7.17
2019-05-10T06:59:46.675Z,7.53
2019-05-10T07:02:26.249Z,7.33
2019-05-10T07:04:57.699Z,5.80
2019-05-10T07:07:43.150Z,6.78
2019-05-10T07:10:18.144Z,5.95
2019-05-10T07:12:46.565Z,5.53
2019-05-10T07:15:23.039Z,9.65
2019-05-10T07:17:57.715Z,6.00
2019-05-10T07:20:32.433Z,8.48
2019-05-10T07:23:07.913Z,5.53
2019-05-10T07:25:43.930Z,4.85
2019-05-10T07:28:19.150Z,4.78
2019-05-10T07:30:53.959Z,5.10
2019-05-10T07:33:32.191Z,4.35
2019-05-10T07:36:13.767Z,4.70
2019-05-10T07:38:41.375Z,4.65
2019-05-10T07:41:19.434Z,7.05
2019-05-10T07:43:52.373Z,4.62
2019-05-10T07:46:27.053Z,4.40
2019-05-10T07:49:01.808Z,4.20
2019-05-10T07:51:36.535Z,3.00
2019-05-10T07:54:11.299Z,4.67
2019-05-10T07:56:47.826Z,5.17
2019-05-10T07:59:27.974Z,5.30
2019-05-10T08:01:58.704Z,6.45
2019-05-10T08:04:33.762Z,3.90
2019-05-10T08:07:10.454Z,5.60
2019-05-10T08:09:46.229Z,4.60
2019-05-10T08:12:21.218Z,3.20
2019-05-10T08:14:55.970Z,5.37
2019-05-10T08:17:35.424Z,6.00
2019-05-10T08:20:08.900Z,5.15
2019-05-10T08:22:46.099Z,2.87
2019-05-10T08:25:23.030Z,5.10
2019-05-10T08:27:57.013Z,4.92
2019-05-10T08:30:50.806Z,3.75
2019-05-10T08:33:16.635Z,3.30
2019-05-10T08:36:00.347Z,4.85
2019-05-10T08:38:27.798Z,2.15
2019-05-10T08:41:02.744Z,2.45
2019-05-10T08:43:40.156Z,3.72
2019-05-10T08:46:19.367Z,5.20
2019-05-10T08:48:53.824Z,3.45
2019-05-10T08:51:27.830Z,2.37
2019-05-10T08:54:02.684Z,2.72
2019-05-10T08:56:37.265Z,2.98
2019-05-10T08:59:16.357Z,2.75
2019-05-10T09:01:50.826Z,2.25
2019-05-10T09:04:24.807Z,2.90
2019-05-10T09:07:00.061Z,2.77
2019-05-10T09:09:45.589Z,4.00
2019-05-10T09:12:12.526Z,4.53
2019-05-10T09:14:48.884Z,3.00
2019-05-10T09:17:28.295Z,6.72
2019-05-10T09:20:02.646Z,10.53
2019-05-10T09:22:38.719Z,6.37
2019-05-10T09:25:14.451Z,3.33
2019-05-10T09:27:49.207Z,6.17
2019-05-10T09:30:35.834Z,2.90
2019-05-10T09:33:14.158Z,3.55
2019-05-10T09:35:51.264Z,4.25
2019-05-10T09:38:23.150Z,2.15
2019-05-10T09:40:57.871Z,1.82
2019-05-10T09:43:32.627Z,2.67
2019-05-10T09:46:07.411Z,2.15
2019-05-10T09:48:44.750Z,3.98
2019-05-10T09:51:19.018Z,1.60
2019-05-10T09:53:57.666Z,3.17
2019-05-10T09:56:39.490Z,2.45
2019-05-10T09:59:08.701Z,4.75
2019-05-10T10:01:43.548Z,1.55
2019-05-10T10:04:20.481Z,1.30
2019-05-10T10:06:54.714Z,2.55
2019-05-10T10:09:33.777Z,3.45
2019-05-10T10:12:06.960Z,2.85
2019-05-10T10:14:43.478Z,2.62
2019-05-10T10:17:20.613Z,2.52
2019-05-10T10:19:57.700Z,3.75
2019-05-10T10:22:31.546Z,2.72
2019-05-10T10:25:07.390Z,3.83
2019-05-10T10:27:42.403Z,2.20
2019-05-10T10:30:21.109Z,2.37
2019-05-10T10:32:53.762Z,5.00
2019-05-10T10:35:29.905Z,4.35
2019-05-10T10:38:05.635Z,4.08
2019-05-10T10:40:44.472Z,3.15
2019-05-10T10:43:18.030Z,1.00
2019-05-10T10:45:52.744Z,1.00
2019-05-10T10:48:29.358Z,2.95
2019-05-10T10:51:04.460Z,2.00
2019-05-10T10:53:39.090Z,1.55
2019-05-10T10:56:13.760Z,2.27
2019-05-10T10:58:50.078Z,2.00
2019-05-10T11:01:25.680Z,4.92
2019-05-10T11:04:03.425Z,2.50
2019-05-10T11:06:38.129Z,3.12
2019-05-10T11:09:12.846Z,3.10
2019-05-10T11:11:47.595Z,2.15
2019-05-10T11:14:22.319Z,5.83
2019-05-10T11:16:57.365Z,2.80
2019-05-10T11:19:32.191Z,3.30
2019-05-10T11:22:09.581Z,4.95
2019-05-10T11:24:43.306Z,1.27
2019-05-10T11:27:18.061Z,2.83
2019-05-10T11:29:55.126Z,3.35
2019-05-10T11:32:31.365Z,2.58
2019-05-10T11:35:06.038Z,1.47
2019-05-10T11:37:43.374Z,6.55
2019-05-10T11:40:24.543Z,2.75
2019-05-10T11:42:53.722Z,1.47
2019-05-10T11:45:34.475Z,1.65
2019-05-10T11:48:04.965Z,1.65
2019-05-10T11:50:41.113Z,3.83
2019-05-10T11:53:17.328Z,1.87
2019-05-10T11:55:52.318Z,6.05
2019-05-10T11:58:27.013Z,1.12
2019-05-10T12:01:12.840Z,2.30
2019-05-10T12:03:38.190Z,1.25
2019-05-10T12:06:12.841Z,1.55
2019-05-10T12:08:47.514Z,1.50
2019-05-10T12:11:33.013Z,3.50
2019-05-10T12:14:02.129Z,1.87
2019-05-10T12:16:34.898Z,1.00
2019-05-10T12:19:19.526Z,1.37
2019-05-10T12:21:46.746Z,2.60
2019-05-10T12:24:39.223Z,1.12
2019-05-10T12:27:22.014Z,3.10
2019-05-10T12:29:34.858Z,2.72
2019-05-10T12:32:10.404Z,2.30
2019-05-10T12:34:45.977Z,1.67
2019-05-10T12:37:21.566Z,2.80
2019-05-10T12:39:56.247Z,2.42
2019-05-10T12:42:31.639Z,1.80
2019-05-10T12:45:09.885Z,1.67
2019-05-10T12:47:44.678Z,0.95
2019-05-10T12:50:20.340Z,0.45
2019-05-10T12:53:03.152Z,0.60
2019-05-10T12:55:31.422Z,3.33
2019-05-10T12:58:06.204Z,0.82
2019-05-10T13:00:40.884Z,1.52
2019-05-10T13:03:19.003Z,0.53
2019-05-10T13:05:53.157Z,0.98
2019-05-10T13:08:28.450Z,0.35
2019-05-10T13:11:03.272Z,0.40
2019-05-10T13:13:37.976Z,3.60
2019-05-10T13:16:12.735Z,1.57
2019-05-10T13:18:51.771Z,0.15
2019-05-10T13:21:23.785Z,0.35
2019-05-10T13:23:58.569Z,1.37
2019-05-10T13:26:33.340Z,1.35
2019-05-10T13:29:11.088Z,1.07
2019-05-10T13:31:45.841Z,0.60
2019-05-10T13:34:24.089Z,0.75
2019-05-10T13:36:57.262Z,0.45
2019-05-10T13:39:33.038Z,0.93
2019-05-10T13:42:09.663Z,0.60
2019-05-10T13:44:44.582Z,0.62
2019-05-10T13:47:19.377Z,2.27
2019-05-10T13:49:54.089Z,1.32
2019-05-10T13:52:30.107Z,1.47
2019-05-10T13:55:06.662Z,2.90
2019-05-10T13:57:41.349Z,2.27
2019-05-10T14:00:16.709Z,2.55
2019-05-10T14:02:51.454Z,2.27
2019-05-10T14:05:26.185Z,1.57
2019-05-10T14:08:00.982Z,0.65
2019-05-10T14:10:35.870Z,0.55
2019-05-10T14:13:10.557Z,0.78
2019-05-10T14:15:45.342Z,1.50
2019-05-10T14:18:20.108Z,1.82
2019-05-10T14:20:54.767Z,0.57
2019-05-10T14:23:35.327Z,1.32
2019-05-10T14:26:09.271Z,1.75
2019-05-10T14:28:42.122Z,1.05
2019-05-10T14:31:16.868Z,4.20
2019-05-10T14:34:14.306Z,0.85
2019-05-10T14:36:28.006Z,1.57
2019-05-10T14:39:02.678Z,0.72
2019-05-10T14:41:39.796Z,1.50
2019-05-10T14:44:13.890Z,0.93
2019-05-10T14:46:48.680Z,0.65
2019-05-10T14:49:23.362Z,0.62
2019-05-10T14:51:59.652Z,1.72
2019-05-10T14:54:43.180Z,1.80
2019-05-10T14:57:10.863Z,0.30
2019-05-10T14:59:45.615Z,0.60
2019-05-10T15:02:22.490Z,1.45
2019-05-10T15:05:00.584Z,0.40
2019-05-10T15:07:33.178Z,0.33
2019-05-10T15:10:08.362Z,0.37
2019-05-10T15:12:43.121Z,1.92
2019-05-10T15:15:17.876Z,0.70
2019-05-10T15:17:54.912Z,1.12
2019-05-10T15:20:28.973Z,1.35
2019-05-10T15:23:03.763Z,2.70
2019-05-10T15:25:38.388Z,1.42
2019-05-10T15:28:13.097Z,1.67
2019-05-10T15:30:52.323Z,2.17
2019-05-10T15:33:24.063Z,1.12
2019-05-10T15:35:58.752Z,0.50
2019-05-10T15:38:33.546Z,1.27
2019-05-10T15:41:08.306Z,0.95
2019-05-10T15:43:43.098Z,0.70
2019-05-10T15:46:17.766Z,4.87
2019-05-10T15:48:52.482Z,0.40
2019-05-10T15:51:35.648Z,2.30
2019-05-10T15:54:07.044Z,1.17
2019-05-10T15:56:44.039Z,0.85
2019-05-10T15:59:18.909Z,1.22
2019-05-10T16:04:40.714Z,1.03
2019-05-10T16:07:16.662Z,1.40
2019-05-10T16:09:54.474Z,0.62
2019-05-10T16:12:27.894Z,1.90
2019-05-10T16:15:02.689Z,0.40
2019-05-10T16:17:37.370Z,3.15
2019-05-10T16:20:13.904Z,0.20
2019-05-10T16:22:48.595Z,1.65
2019-05-10T16:25:23.322Z,0.30
2019-05-10T16:27:57.987Z,0.68
2019-05-10T16:30:32.710Z,0.45
2019-05-10T16:33:09.643Z,1.15
2019-05-10T16:35:44.196Z,0.50
2019-05-10T16:38:20.283Z,2.05
2019-05-10T16:40:58.713Z,3.62
2019-05-10T16:43:31.407Z,3.65
2019-05-10T16:46:07.792Z,2.42
2019-05-10T16:48:42.440Z,1.57
2019-05-10T16:51:20.030Z,1.42
2019-05-10T16:53:54.642Z,0.45
2019-05-10T16:56:29.370Z,1.70
2019-05-10T16:59:04.121Z,3.25
2019-05-10T17:01:38.852Z,2.87
2019-05-10T17:04:13.524Z,5.85
2019-05-10T17:06:48.275Z,3.33
2019-05-10T17:09:24.559Z,2.92
2019-05-10T17:11:59.316Z,1.82
2019-05-10T17:14:34.005Z,2.00
2019-05-10T17:17:09.823Z,1.07
2019-05-10T17:19:44.518Z,1.02
2019-05-10T17:22:19.320Z,2.20
2019-05-10T17:25:01.050Z,3.15
2019-05-10T17:27:30.340Z,2.12
2019-05-10T17:30:06.510Z,3.62
2019-05-10T17:32:41.295Z,2.25
2019-05-10T17:35:16.047Z,3.20
2019-05-10T17:37:52.989Z,4.12
2019-05-10T17:40:27.096Z,6.25
2019-05-10T17:43:01.862Z,9.38
2019-05-10T17:45:40.424Z,7.33
2019-05-10T17:48:12.906Z,6.08
2019-05-10T17:50:47.627Z,3.42
2019-05-10T17:53:22.291Z,2.05
2019-05-10T17:56:02.382Z,1.02
2019-05-10T17:58:34.894Z,1.40
2019-05-10T18:01:09.743Z,2.10
2019-05-10T18:03:44.441Z,2.98
2019-05-10T18:06:23.983Z,2.40
2019-05-10T18:08:55.450Z,0.93
2019-05-10T18:11:30.197Z,1.72
2019-05-10T18:14:04.983Z,0.93
2019-05-10T18:16:48.065Z,0.98
2019-05-10T18:19:23.968Z,1.02
2019-05-10T18:22:00.661Z,0.62
2019-05-10T18:24:36.324Z,3.08
2019-05-10T18:27:09.630Z,1.12
2019-05-10T18:29:48.677Z,1.20
2019-05-10T18:32:23.463Z,3.35
2019-05-10T18:34:58.145Z,3.10
2019-05-10T18:37:32.891Z,4.12
2019-05-10T18:40:08.981Z,3.42
2019-05-10T18:42:43.740Z,2.27
2019-05-10T18:45:18.566Z,3.22
2019-05-10T18:47:53.263Z,4.60
2019-05-10T18:50:27.966Z,4.12
2019-05-10T18:53:02.594Z,3.80
2019-05-10T18:55:37.804Z,3.35
2019-05-10T18:58:12.552Z,4.58
2019-05-10T19:00:47.878Z,4.62
2019-05-10T19:03:22.473Z,2.85
2019-05-10T19:05:57.167Z,4.67
2019-05-10T19:08:31.784Z,4.00
2019-05-10T19:11:07.000Z,3.55
2019-05-10T19:13:48.171Z,3.22
2019-05-10T19:16:18.455Z,5.92
2019-05-10T19:18:55.887Z,3.15
2019-05-10T19:21:32.611Z,3.17
2019-05-10T19:24:07.502Z,3.10
2019-05-10T19:26:42.226Z,12.18
2019-05-10T19:29:16.981Z,8.53
2019-05-10T19:31:51.773Z,7.08
2019-05-10T19:34:26.526Z,5.50
2019-05-10T19:37:01.328Z,12.47
2019-05-10T19:39:37.471Z,6.15
2019-05-10T19:42:12.377Z,9.30
2019-05-10T19:44:47.733Z,10.45
2019-05-10T19:47:22.571Z,12.60
2019-05-10T19:49:57.260Z,8.28
2019-05-10T19:52:31.912Z,10.70
2019-05-10T19:55:07.565Z,6.05
2019-05-10T19:57:43.819Z,2.58
2019-05-10T20:00:18.647Z,2.47
2019-05-10T20:02:53.874Z,4.80
2019-05-10T20:05:30.381Z,4.47
2019-05-10T20:08:05.119Z,5.12
2019-05-10T20:10:39.798Z,3.92
2019-05-10T20:13:14.623Z,19.17
2019-05-10T20:15:50.388Z,9.78
2019-05-10T20:18:25.111Z,17.27
2019-05-10T20:20:59.812Z,25.62
2019-05-10T20:23:34.518Z,9.73
2019-05-10T20:26:09.273Z,8.05
2019-05-10T20:28:43.983Z,10.38
2019-05-10T20:31:18.815Z,4.45
2019-05-10T20:33:53.661Z,5.40
2019-05-10T20:36:28.354Z,3.87
2019-05-10T20:39:04.481Z,3.40
2019-05-10T20:41:39.162Z,4.35
2019-05-10T20:44:13.946Z,6.97
2019-05-10T20:46:49.381Z,4.17
2019-05-10T20:49:24.115Z,3.52
2019-05-10T20:51:58.948Z,7.10
2019-05-10T20:54:33.761Z,9.15
2019-05-10T20:57:08.448Z,17.07
2019-05-10T20:59:43.191Z,12.50
2019-05-10T21:02:18.547Z,10.78
2019-05-10T21:04:53.257Z,9.45
2019-05-10T21:07:30.894Z,6.20
2019-05-10T21:10:06.467Z,10.72
2019-05-10T21:12:41.225Z,8.75
2019-05-10T21:15:16.028Z,9.33
2019-05-10T21:17:50.678Z,11.60
2019-05-10T21:20:25.366Z,5.83
2019-05-10T21:23:00.047Z,7.72
2019-05-10T21:25:34.756Z,8.58
2019-05-10T21:28:09.437Z,8.85
2019-05-10T21:30:44.264Z,9.08
2019-05-10T21:33:19.574Z,9.78
2019-05-10T21:35:54.303Z,5.90
2019-05-10T21:38:33.034Z,6.42
2019-05-10T21:41:05.318Z,7.42
2019-05-10T21:43:40.041Z,5.85
2019-05-10T21:46:14.821Z,5.35
2019-05-10T21:48:49.979Z,2.87
2019-05-10T21:51:24.713Z,3.37
2019-05-10T21:53:59.343Z,5.25
2019-05-10T21:56:36.238Z,7.80
2019-05-10T21:59:10.448Z,17.45
2019-05-10T22:01:45.239Z,18.73
2019-05-10T22:04:21.962Z,18.62
2019-05-10T22:06:58.151Z,10.90
2019-05-10T22:09:32.839Z,10.43
2019-05-10T22:12:07.654Z,9.60
2019-05-10T22:14:42.306Z,4.20
2019-05-10T22:17:17.171Z,5.90
2019-05-10T22:19:51.780Z,3.95
2019-05-10T22:22:26.587Z,2.37
2019-05-10T22:25:01.278Z,2.35
2019-05-10T22:27:36.036Z,2.40
2019-05-10T22:30:12.413Z,3.83
2019-05-10T22:32:47.535Z,1.65
2019-05-10T22:35:22.314Z,1.70
2019-05-10T22:37:57.043Z,1.62
2019-05-10T22:40:31.650Z,4.03
2019-05-10T22:43:06.443Z,2.08
2019-05-10T22:45:41.123Z,1.80
2019-05-10T22:48:15.774Z,2.65
2019-05-10T22:50:50.459Z,4.17
2019-05-10T22:53:25.097Z,2.47
2019-05-10T22:55:59.778Z,2.40
2019-05-10T22:58:34.495Z,1.90
2019-05-10T23:01:09.242Z,1.87
2019-05-10T23:03:43.969Z,1.80
2019-05-10T23:06:19.415Z,3.47
2019-05-10T23:08:54.055Z,10.85
2019-05-10T23:11:28.669Z,5.05
2019-05-10T23:14:03.929Z,7.60
2019-05-10T23:16:38.607Z,13.08
2019-05-10T23:19:13.326Z,8.85
2019-05-10T23:21:48.019Z,6.67
2019-05-10T23:24:24.327Z,3.45
2019-05-10T23:26:59.002Z,5.08
2019-05-10T23:29:34.163Z,7.00
2019-05-10T23:32:08.915Z,6.67
2019-05-10T23:34:43.636Z,4.08
2019-05-10T23:37:18.312Z,7.20
2019-05-10T23:39:52.955Z,6.30
2019-05-10T23:42:27.634Z,20.95
2019-05-10T23:45:02.451Z,8.15
2019-05-10T23:47:37.118Z,6.10
2019-05-10T23:50:12.015Z,11.22
2019-05-10T23:52:46.669Z,10.10
2019-05-10T23:55:21.276Z,5.20
2019-05-10T23:57:56.023Z,5.12
